sensor_id;sensor_type;location;lat;lon;timestamp;temperature;humidity
27870;DHT22;15225;50.730;4.244;2023-03-20T17:38:23;12.10;99.90
27870;DHT22;15225;50.730;4.244;2023-03-20T17:40:50;12.00;99.90
27870;DHT22;15225;50.730;4.244;2023-03-20T17:43:17;12.20;99.90
27870;DHT22;15225;50.730;4.244;2023-03-20T17:45:43;12.60;96.50
27870;DHT22;15225;50.730;4.244;2023-03-20T17:48:15;13.10;1.00
27870;DHT22;15225;50.730;4.244;2023-03-20T17:50:43;13.60;99.90
27870;DHT22;15225;50.730;4.244;2023-03-20T17:53:27;13.80;99.90
27870;DHT22;15225;50.730;4.244;2023-03-20T17:55:53;14.00;99.90
27870;DHT22;15225;50.730;4.244;2023-03-20T17:58:23;14.20;1.00
27870;DHT22;15225;50.730;4.244;2023-03-20T18:00:49;14.40;1.00
27870;DHT22;15225;50.730;4.244;2023-03-20T18:03:16;14.40;99.90
27870;DHT22;15225;50.730;4.244;2023-03-20T18:05:44;14.50;1.00
27870;DHT22;15225;50.730;4.244;2023-03-20T18:08:21;14.50;99.90
27870;DHT22;15225;50.730;4.244;2023-03-20T18:10:48;14.50;99.90
27870;DHT22;15225;50.730;4.244;2023-03-20T18:13:14;14.50;1.00
27870;DHT22;15225;50.730;4.244;2023-03-20T18:15:43;14.50;99.90
27870;DHT22;15225;50.730;4.244;2023-03-20T18:18:09;14.40;1.00
27870;DHT22;15225;50.730;4.244;2023-03-20T18:20:37;14.40;1.00
27870;DHT22;15225;50.730;4.244;2023-03-20T18:23:05;14.40;60.50
27870;DHT22;15225;50.730;4.244;2023-03-20T18:25:32;14.30;99.90
27870;DHT22;15225;50.730;4.244;2023-03-20T18:27:59;14.40;99.90
27870;DHT22;15225;50.730;4.244;2023-03-20T18:30:31;14.40;99.90
27870;DHT22;15225;50.730;4.244;2023-03-20T18:32:56;14.40;99.90
27870;DHT22;15225;50.730;4.244;2023-03-20T18:35:22;14.40;99.90
27870;DHT22;15225;50.730;4.244;2023-03-20T18:37:48;14.40;99.90
27870;DHT22;15225;50.730;4.244;2023-03-20T18:40:21;14.40;99.90
27870;DHT22;15225;50.730;4.244;2023-03-20T18:42:47;14.30;99.90
27870;DHT22;15225;50.730;4.244;2023-03-20T18:45:13;14.10;99.90
27870;DHT22;15225;50.730;4.244;2023-03-20T18:47:39;14.10;99.90
27870;DHT22;15225;50.730;4.244;2023-03-20T18:50:17;14.10;1.00
27870;DHT22;15225;50.730;4.244;2023-03-20T18:52:44;14.00;1.00
27870;DHT22;15225;50.730;4.244;2023-03-20T18:55:09;14.20;99.90
27870;DHT22;15225;50.730;4.244;2023-03-20T18:57:35;14.20;99.90
27870;DHT22;15225;50.730;4.244;2023-03-20T19:02:41;14.10;99.90
27870;DHT22;15225;50.730;4.244;2023-03-20T19:05:07;14.20;99.90
27870;DHT22;15225;50.730;4.244;2023-03-20T19:07:32;14.20;99.90
27870;DHT22;15225;50.730;4.244;2023-03-20T19:09:58;14.20;99.90
27870;DHT22;15225;50.730;4.244;2023-03-20T19:12:24;14.30;86.30
27870;DHT22;15225;50.730;4.244;2023-03-20T19:14:50;14.20;99.90
27870;DHT22;15225;50.730;4.244;2023-03-20T19:17:15;14.20;99.90
27870;DHT22;15225;50.730;4.244;2023-03-20T19:19:41;14.20;99.90
27870;DHT22;15225;50.730;4.244;2023-03-20T19:22:07;14.30;1.00
27870;DHT22;15225;50.730;4.244;2023-03-20T19:24:32;14.30;99.90
27870;DHT22;15225;50.730;4.244;2023-03-20T19:26:58;14.30;1.00
27870;DHT22;15225;50.730;4.244;2023-03-20T19:29:23;14.30;1.00
27870;DHT22;15225;50.730;4.244;2023-03-20T19:31:49;14.20;1.00
27870;DHT22;15225;50.730;4.244;2023-03-20T19:34:15;14.10;99.90
27870;DHT22;15225;50.730;4.244;2023-03-20T19:36:41;14.00;1.00
27870;DHT22;15225;50.730;4.244;2023-03-20T19:39:09;14.00;1.00
27870;DHT22;15225;50.730;4.244;2023-03-20T19:41:36;14.10;99.90
27870;DHT22;15225;50.730;4.244;2023-03-20T19:44:02;14.20;99.90
27870;DHT22;15225;50.730;4.244;2023-03-20T19:46:28;14.10;1.00
27870;DHT22;15225;50.730;4.244;2023-03-20T19:48:53;14.00;99.90
27870;DHT22;15225;50.730;4.244;2023-03-20T19:51:21;13.90;1.00
27870;DHT22;15225;50.730;4.244;2023-03-20T19:53:48;13.90;1.00
27870;DHT22;15225;50.730;4.244;2023-03-20T19:56:16;13.90;1.00
27870;DHT22;15225;50.730;4.244;2023-03-20T19:58:42;14.00;1.00
27870;DHT22;15225;50.730;4.244;2023-03-20T20:01:14;14.10;99.90
27870;DHT22;15225;50.730;4.244;2023-03-20T20:03:40;13.90;1.00
27870;DHT22;15225;50.730;4.244;2023-03-20T20:06:05;13.90;1.00
27870;DHT22;15225;50.730;4.244;2023-03-20T20:08:31;13.80;99.90
27870;DHT22;15225;50.730;4.244;2023-03-20T20:10:57;13.80;99.90
27870;DHT22;15225;50.730;4.244;2023-03-20T20:13:29;13.80;99.90
27870;DHT22;15225;50.730;4.244;2023-03-20T20:15:55;13.70;99.90
27870;DHT22;15225;50.730;4.244;2023-03-20T20:18:23;13.60;1.00
27870;DHT22;15225;50.730;4.244;2023-03-20T20:20:49;13.60;1.00
27870;DHT22;15225;50.730;4.244;2023-03-20T20:23:19;13.70;18.10
27870;DHT22;15225;50.730;4.244;2023-03-20T20:25:45;13.80;99.90
27870;DHT22;15225;50.730;4.244;2023-03-20T20:28:12;13.80;99.90
27870;DHT22;15225;50.730;4.244;2023-03-20T20:30:38;13.90;99.40
27870;DHT22;15225;50.730;4.244;2023-03-20T20:33:04;13.80;29.20
27870;DHT22;15225;50.730;4.244;2023-03-20T20:35:31;13.80;99.90
27870;DHT22;15225;50.730;4.244;2023-03-20T20:37:58;13.90;99.90
27870;DHT22;15225;50.730;4.244;2023-03-20T20:40:25;13.80;1.00
27870;DHT22;15225;50.730;4.244;2023-03-20T20:42:52;13.70;1.00
27870;DHT22;15225;50.730;4.244;2023-03-20T20:45:22;13.80;1.00
27870;DHT22;15225;50.730;4.244;2023-03-20T20:47:48;13.80;1.00
27870;DHT22;15225;50.730;4.244;2023-03-20T20:50:17;13.80;92.30
27870;DHT22;15225;50.730;4.244;2023-03-20T20:52:43;13.70;99.90
27870;DHT22;15225;50.730;4.244;2023-03-20T20:55:13;13.80;1.00
27870;DHT22;15225;50.730;4.244;2023-03-20T20:57:40;13.90;1.00
27870;DHT22;15225;50.730;4.244;2023-03-20T21:00:07;13.80;92.80
27870;DHT22;15225;50.730;4.244;2023-03-20T21:02:34;13.90;4.60
27870;DHT22;15225;50.730;4.244;2023-03-20T21:05:10;13.80;29.10
27870;DHT22;15225;50.730;4.244;2023-03-20T21:07:37;13.80;99.90
27870;DHT22;15225;50.730;4.244;2023-03-20T21:10:04;13.80;99.90
27870;DHT22;15225;50.730;4.244;2023-03-20T21:12:31;13.80;99.90
27870;DHT22;15225;50.730;4.244;2023-03-20T21:14:56;13.90;99.90
27870;DHT22;15225;50.730;4.244;2023-03-20T21:17:24;13.90;1.00
27870;DHT22;15225;50.730;4.244;2023-03-20T21:19:49;13.90;99.90
27870;DHT22;15225;50.730;4.244;2023-03-20T21:22:15;13.90;99.90
27870;DHT22;15225;50.730;4.244;2023-03-20T21:24:42;13.90;99.90
27870;DHT22;15225;50.730;4.244;2023-03-20T21:27:13;13.90;99.90
27870;DHT22;15225;50.730;4.244;2023-03-20T21:29:40;14.00;99.90
27870;DHT22;15225;50.730;4.244;2023-03-20T21:32:08;14.00;99.90
27870;DHT22;15225;50.730;4.244;2023-03-20T21:34:35;14.10;99.90
27870;DHT22;15225;50.730;4.244;2023-03-20T21:37:03;14.10;99.90
27870;DHT22;15225;50.730;4.244;2023-03-20T21:39:29;14.10;99.90
27870;DHT22;15225;50.730;4.244;2023-03-20T21:41:55;14.10;99.90
27870;DHT22;15225;50.730;4.244;2023-03-20T21:44:21;14.10;99.90
27870;DHT22;15225;50.730;4.244;2023-03-20T21:46:47;14.00;99.90
27870;DHT22;15225;50.730;4.244;2023-03-20T21:49:13;14.10;99.90
27870;DHT22;15225;50.730;4.244;2023-03-20T21:51:39;14.20;99.90
27870;DHT22;15225;50.730;4.244;2023-03-20T21:54:06;14.20;99.90
27870;DHT22;15225;50.730;4.244;2023-03-20T21:56:32;14.30;47.10
27870;DHT22;15225;50.730;4.244;2023-03-20T21:58:58;14.20;55.50
27870;DHT22;15225;50.730;4.244;2023-03-20T22:01:23;14.30;1.00
27870;DHT22;15225;50.730;4.244;2023-03-20T22:03:49;14.40;1.00
27870;DHT22;15225;50.730;4.244;2023-03-20T22:06:15;14.50;99.90
